sensor_id;sensor_type;location;lat;lon;timestamp;pressure;altitude;pressure_sealevel;temperature;humidity
69257;BME280;56376;53.356;-1.748;2023-03-20T00:01:51;99397.81;;;7.55;100.00
69257;BME280;56376;53.356;-1.748;2023-03-20T00:04:16;99391.78;;;7.55;100.00
69257;BME280;56376;53.356;-1.748;2023-03-20T00:06:42;99391.84;;;7.53;100.00
69257;BME280;56376;53.356;-1.748;2023-03-20T00:09:07;99392.75;;;7.51;100.00
69257;BME280;56376;53.356;-1.748;2023-03-20T00:11:43;99392.72;;;7.52;100.00
69257;BME280;56376;53.356;-1.748;2023-03-20T00:14:14;99386.66;;;7.52;100.00
69257;BME280;56376;53.356;-1.748;2023-03-20T00:16:45;99388.38;;;7.53;100.00
69257;BME280;56376;53.356;-1.748;2023-03-20T00:19:25;99390.09;;;7.54;100.00
69257;BME280;56376;53.356;-1.748;2023-03-20T00:21:53;99384.88;;;7.54;100.00
69257;BME280;56376;53.356;-1.748;2023-03-20T00:24:19;99381.38;;;7.55;100.00
69257;BME280;56376;53.356;-1.748;2023-03-20T00:26:46;99379.63;;;7.55;100.00
69257;BME280;56376;53.356;-1.748;2023-03-20T00:29:28;99379.63;;;7.55;100.00
69257;BME280;56376;53.356;-1.748;2023-03-20T00:31:55;99378.75;;;7.56;100.00
69257;BME280;56376;53.356;-1.748;2023-03-20T00:34:23;99371.84;;;7.55;100.00
69257;BME280;56376;53.356;-1.748;2023-03-20T00:36:50;99368.44;;;7.53;100.00
69257;BME280;56376;53.356;-1.748;2023-03-20T00:39:16;99369.31;;;7.52;100.00
69257;BME280;56376;53.356;-1.748;2023-03-20T00:46:39;99363.25;;;7.53;100.00
69257;BME280;56376;53.356;-1.748;2023-03-20T00:49:05;99365.78;;;7.55;100.00
69257;BME280;56376;53.356;-1.748;2023-03-20T00:51:30;99365.78;;;7.55;100.00
69257;BME280;56376;53.356;-1.748;2023-03-20T00:53:56;99354.63;;;7.51;100.00
69257;BME280;56376;53.356;-1.748;2023-03-20T00:56:39;99353.84;;;7.48;100.00
69257;BME280;56376;53.356;-1.748;2023-03-20T00:59:15;99352.91;;;7.50;100.00
69257;BME280;56376;53.356;-1.748;2023-03-20T01:01:42;99352.06;;;7.50;100.00
69257;BME280;56376;53.356;-1.748;2023-03-20T01:04:12;99341.56;;;7.53;100.00
69257;BME280;56376;53.356;-1.748;2023-03-20T01:06:38;99332.91;;;7.54;100.00
69257;BME280;56376;53.356;-1.748;2023-03-20T01:09:03;99329.38;;;7.56;100.00
69257;BME280;56376;53.356;-1.748;2023-03-20T01:11:29;99332.00;;;7.55;100.00
69257;BME280;56376;53.356;-1.748;2023-03-20T01:13:55;99326.78;;;7.56;100.00
69257;BME280;56376;53.356;-1.748;2023-03-20T01:16:23;99318.13;;;7.56;100.00
69257;BME280;56376;53.356;-1.748;2023-03-20T01:18:50;99317.22;;;7.57;100.00
69257;BME280;56376;53.356;-1.748;2023-03-20T01:21:16;99305.13;;;7.56;100.00
69257;BME280;56376;53.356;-1.748;2023-03-20T01:23:42;99303.41;;;7.55;100.00
69257;BME280;56376;53.356;-1.748;2023-03-20T01:26:19;99318.91;;;7.58;100.00
69257;BME280;56376;53.356;-1.748;2023-03-20T01:28:45;99308.50;;;7.58;100.00
69257;BME280;56376;53.356;-1.748;2023-03-20T01:31:16;99314.59;;;7.58;100.00
69257;BME280;56376;53.356;-1.748;2023-03-20T01:33:41;99309.38;;;7.58;100.00
69257;BME280;56376;53.356;-1.748;2023-03-20T01:36:11;99309.41;;;7.57;100.00
69257;BME280;56376;53.356;-1.748;2023-03-20T01:38:38;99315.47;;;7.57;100.00
69257;BME280;56376;53.356;-1.748;2023-03-20T01:41:13;99312.88;;;7.57;100.00
69257;BME280;56376;53.356;-1.748;2023-03-20T01:43:41;99310.31;;;7.56;100.00
69257;BME280;56376;53.356;-1.748;2023-03-20T01:51:13;99308.50;;;7.58;100.00
69257;BME280;56376;53.356;-1.748;2023-03-20T01:53:39;99308.56;;;7.56;100.00
69257;BME280;56376;53.356;-1.748;2023-03-20T01:56:04;99301.72;;;7.54;100.00
69257;BME280;56376;53.356;-1.748;2023-03-20T01:58:34;99299.16;;;7.52;100.00
69257;BME280;56376;53.356;-1.748;2023-03-20T02:01:02;99292.25;;;7.51;100.00
69257;BME280;56376;53.356;-1.748;2023-03-20T02:03:28;99294.84;;;7.51;100.00
69257;BME280;56376;53.356;-1.748;2023-03-20T02:05:55;99291.34;;;7.52;100.00
69257;BME280;56376;53.356;-1.748;2023-03-20T02:08:28;99285.31;;;7.52;100.00
69257;BME280;56376;53.356;-1.748;2023-03-20T02:10:55;99283.66;;;7.49;100.00
69257;BME280;56376;53.356;-1.748;2023-03-20T02:13:21;99280.22;;;7.47;100.00
69257;BME280;56376;53.356;-1.748;2023-03-20T02:16:10;99270.78;;;7.45;100.00
69257;BME280;56376;53.356;-1.748;2023-03-20T02:18:37;99262.97;;;7.45;100.00
69257;BME280;56376;53.356;-1.748;2023-03-20T02:26:38;99267.31;;;7.44;100.00
69257;BME280;56376;53.356;-1.748;2023-03-20T02:43:41;99244.78;;;7.45;100.00
69257;BME280;56376;53.356;-1.748;2023-03-20T02:46:25;99244.81;;;7.43;100.00
69257;BME280;56376;53.356;-1.748;2023-03-20T02:51:59;99236.97;;;7.45;100.00
69257;BME280;56376;53.356;-1.748;2023-03-20T02:54:37;99230.88;;;7.46;100.00
69257;BME280;56376;53.356;-1.748;2023-03-20T02:57:11;99231.75;;;7.46;100.00
69257;BME280;56376;53.356;-1.748;2023-03-20T02:59:48;99230.88;;;7.46;100.00
69257;BME280;56376;53.356;-1.748;2023-03-20T03:02:23;99231.78;;;7.45;100.00
69257;BME280;56376;53.356;-1.748;2023-03-20T03:04:54;99232.59;;;7.47;100.00
69257;BME280;56376;53.356;-1.748;2023-03-20T03:07:24;99228.25;;;7.47;100.00
69257;BME280;56376;53.356;-1.748;2023-03-20T03:10:02;99239.41;;;7.51;100.00
69257;BME280;56376;53.356;-1.748;2023-03-20T03:12:40;99229.94;;;7.48;100.00
69257;BME280;56376;53.356;-1.748;2023-03-20T03:17:57;99231.75;;;7.46;100.00
69257;BME280;56376;53.356;-1.748;2023-03-20T03:22:51;99224.81;;;7.47;100.00
69257;BME280;56376;53.356;-1.748;2023-03-20T03:25:16;99236.91;;;7.48;100.00
69257;BME280;56376;53.356;-1.748;2023-03-20T03:27:44;99226.50;;;7.48;100.00
69257;BME280;56376;53.356;-1.748;2023-03-20T03:30:19;99223.06;;;7.47;100.00
69257;BME280;56376;53.356;-1.748;2023-03-20T03:33:01;99225.63;;;7.49;100.00
69257;BME280;56376;53.356;-1.748;2023-03-20T03:35:31;99226.56;;;7.46;100.00
69257;BME280;56376;53.356;-1.748;2023-03-20T03:38:04;99221.28;;;7.48;100.00
69257;BME280;56376;53.356;-1.748;2023-03-20T03:40:48;99225.56;;;7.50;100.00
69257;BME280;56376;53.356;-1.748;2023-03-20T03:43:26;99220.34;;;7.50;100.00
69257;BME280;56376;53.356;-1.748;2023-03-20T03:45:56;99216.88;;;7.51;100.00
69257;BME280;56376;53.356;-1.748;2023-03-20T03:48:29;99220.31;;;7.52;100.00
69257;BME280;56376;53.356;-1.748;2023-03-20T03:51:00;99212.53;;;7.52;100.00
69257;BME280;56376;53.356;-1.748;2023-03-20T03:53:39;99202.88;;;7.55;100.00
69257;BME280;56376;53.356;-1.748;2023-03-20T03:56:08;99198.50;;;7.57;100.00
69257;BME280;56376;53.356;-1.748;2023-03-20T03:58:39;99192.47;;;7.57;100.00
69257;BME280;56376;53.356;-1.748;2023-03-20T04:01:06;99190.69;;;7.57;100.00
69257;BME280;56376;53.356;-1.748;2023-03-20T04:03:39;99182.91;;;7.57;100.00
69257;BME280;56376;53.356;-1.748;2023-03-20T04:06:07;99191.53;;;7.58;100.00
69257;BME280;56376;53.356;-1.748;2023-03-20T04:08:34;99184.63;;;7.58;100.00
69257;BME280;56376;53.356;-1.748;2023-03-20T04:11:00;99178.53;;;7.58;100.00
69257;BME280;56376;53.356;-1.748;2023-03-20T04:13:25;99181.16;;;7.58;100.00
69257;BME280;56376;53.356;-1.748;2023-03-20T04:15:50;99181.09;;;7.61;100.00
69257;BME280;56376;53.356;-1.748;2023-03-20T04:18:17;99180.19;;;7.61;100.00
69257;BME280;56376;53.356;-1.748;2023-03-20T04:20:44;99181.97;;;7.60;100.00
69257;BME280;56376;53.356;-1.748;2023-03-20T04:23:09;99169.81;;;7.61;100.00
69257;BME280;56376;53.356;-1.748;2023-03-20T04:25:35;99174.06;;;7.63;100.00
69257;BME280;56376;53.356;-1.748;2023-03-20T04:28:00;99174.97;;;7.62;100.00
69257;BME280;56376;53.356;-1.748;2023-03-20T04:30:26;99170.63;;;7.63;100.00
69257;BME280;56376;53.356;-1.748;2023-03-20T04:32:51;99174.03;;;7.65;100.00
69257;BME280;56376;53.356;-1.748;2023-03-20T04:35:17;99181.81;;;7.65;100.00
69257;BME280;56376;53.356;-1.748;2023-03-20T04:37:42;99171.44;;;7.65;100.00
69257;BME280;56376;53.356;-1.748;2023-03-20T04:40:08;99174.88;;;7.65;100.00
69257;BME280;56376;53.356;-1.748;2023-03-20T04:42:34;99169.69;;;7.65;100.00
69257;BME280;56376;53.356;-1.748;2023-03-20T04:44:59;99171.41;;;7.66;100.00
69257;BME280;56376;53.356;-1.748;2023-03-20T04:47:25;99177.47;;;7.65;100.00
69257;BME280;56376;53.356;-1.748;2023-03-20T04:49:50;99180.06;;;7.65;100.00
69257;BME280;56376;53.356;-1.748;2023-03-20T04:52:15;99185.28;;;7.65;100.00
69257;BME280;56376;53.356;-1.748;2023-03-20T04:54:41;99179.22;;;7.65;100.00
69257;BME280;56376;53.356;-1.748;2023-03-20T04:57:06;99175.78;;;7.64;100.00
69257;BME280;56376;53.356;-1.748;2023-03-20T04:59:32;99176.59;;;7.66;100.00
69257;BME280;56376;53.356;-1.748;2023-03-20T05:01:58;99178.38;;;7.64;100.00
69257;BME280;56376;53.356;-1.748;2023-03-20T05:04:23;99178.31;;;7.66;100.00
69257;BME280;56376;53.356;-1.748;2023-03-20T05:06:49;99172.28;;;7.65;100.00
69257;BME280;56376;53.356;-1.748;2023-03-20T05:09:15;99172.25;;;7.67;100.00
69257;BME280;56376;53.356;-1.748;2023-03-20T05:11:41;99165.25;;;7.69;100.00
69257;BME280;56376;53.356;-1.748;2023-03-20T05:14:07;99162.66;;;7.69;100.00
69257;BME280;56376;53.356;-1.748;2023-03-20T05:16:33;99166.03;;;7.71;100.00
69257;BME280;56376;53.356;-1.748;2023-03-20T05:18:58;99158.31;;;7.69;100.00
69257;BME280;56376;53.356;-1.748;2023-03-20T05:21:23;99165.16;;;7.72;100.00
69257;BME280;56376;53.356;-1.748;2023-03-20T05:23:49;99166.91;;;7.71;100.00
69257;BME280;56376;53.356;-1.748;2023-03-20T05:26:15;99164.25;;;7.73;100.00
69257;BME280;56376;53.356;-1.748;2023-03-20T05:28:40;99157.34;;;7.72;100.00
69257;BME280;56376;53.356;-1.748;2023-03-20T05:31:06;99154.75;;;7.72;100.00
69257;BME280;56376;53.356;-1.748;2023-03-20T05:33:31;99159.84;;;7.75;100.00
69257;BME280;56376;53.356;-1.748;2023-03-20T05:35:57;99150.28;;;7.75;100.00
69257;BME280;56376;53.356;-1.748;2023-03-20T05:38:22;99137.38;;;7.74;100.00
69257;BME280;56376;53.356;-1.748;2023-03-20T05:40:48;99144.22;;;7.76;100.00
69257;BME280;56376;53.356;-1.748;2023-03-20T05:43:14;99148.53;;;7.76;100.00
69257;BME280;56376;53.356;-1.748;2023-03-20T05:45:41;99140.81;;;7.74;100.00
69257;BME280;56376;53.356;-1.748;2023-03-20T05:48:06;99145.88;;;7.79;100.00
69257;BME280;56376;53.356;-1.748;2023-03-20T05:50:32;99135.41;;;7.80;100.00
69257;BME280;56376;53.356;-1.748;2023-03-20T05:52:57;99141.44;;;7.81;100.00
69257;BME280;56376;53.356;-1.748;2023-03-20T05:55:22;99137.97;;;7.82;100.00
69257;BME280;56376;53.356;-1.748;2023-03-20T05:57:48;99140.50;;;7.84;100.00
69257;BME280;56376;53.356;-1.748;2023-03-20T06:00:13;99133.50;;;7.86;100.00
69257;BME280;56376;53.356;-1.748;2023-03-20T06:02:39;99129.97;;;7.88;100.00
69257;BME280;56376;53.356;-1.748;2023-03-20T06:05:05;99129.09;;;7.89;100.00
69257;BME280;56376;53.356;-1.748;2023-03-20T06:07:31;99130.72;;;7.92;100.00
69257;BME280;56376;53.356;-1.748;2023-03-20T06:09:56;99127.22;;;7.93;100.00
69257;BME280;56376;53.356;-1.748;2023-03-20T06:12:21;99135.00;;;7.94;100.00
69257;BME280;56376;53.356;-1.748;2023-03-20T06:14:47;99127.19;;;7.94;100.00
69257;BME280;56376;53.356;-1.748;2023-03-20T06:17:12;99141.72;;;8.00;100.00
69257;BME280;56376;53.356;-1.748;2023-03-20T06:19:38;99135.63;;;8.01;100.00
69257;BME280;56376;53.356;-1.748;2023-03-20T06:22:04;99134.75;;;8.02;100.00
69257;BME280;56376;53.356;-1.748;2023-03-20T06:24:30;99140.75;;;8.04;100.00
69257;BME280;56376;53.356;-1.748;2023-03-20T06:26:55;99142.41;;;8.07;100.00
69257;BME280;56376;53.356;-1.748;2023-03-20T06:29:21;99143.19;;;8.09;100.00
69257;BME280;56376;53.356;-1.748;2023-03-20T06:31:46;99147.44;;;8.11;100.00
69257;BME280;56376;53.356;-1.748;2023-03-20T06:34:12;99145.63;;;8.13;100.00
69257;BME280;56376;53.356;-1.748;2023-03-20T06:36:37;99152.56;;;8.14;100.00
69257;BME280;56376;53.356;-1.748;2023-03-20T06:39:03;99152.56;;;8.14;100.00
69257;BME280;56376;53.356;-1.748;2023-03-20T06:42:07;99155.09;;;8.16;100.00
69257;BME280;56376;53.356;-1.748;2023-03-20T06:44:32;99156.81;;;8.17;100.00
69257;BME280;56376;53.356;-1.748;2023-03-20T06:46:58;99166.25;;;8.19;100.00
69257;BME280;56376;53.356;-1.748;2023-03-20T06:49:23;99164.47;;;8.21;100.00
69257;BME280;56376;53.356;-1.748;2023-03-20T06:51:49;99152.31;;;8.22;100.00
69257;BME280;56376;53.356;-1.748;2023-03-20T06:54:14;99170.41;;;8.25;100.00
69257;BME280;56376;53.356;-1.748;2023-03-20T06:56:39;99160.84;;;8.26;100.00
69257;BME280;56376;53.356;-1.748;2023-03-20T06:59:05;99165.22;;;8.25;100.00
69257;BME280;56376;53.356;-1.748;2023-03-20T07:01:30;99166.03;;;8.27;100.00
69257;BME280;56376;53.356;-1.748;2023-03-20T07:03:56;99160.75;;;8.29;100.00
69257;BME280;56376;53.356;-1.748;2023-03-20T07:06:21;99167.66;;;8.30;100.00
69257;BME280;56376;53.356;-1.748;2023-03-20T07:08:47;99168.50;;;8.30;100.00
69257;BME280;56376;53.356;-1.748;2023-03-20T07:11:12;99160.75;;;8.29;100.00
69257;BME280;56376;53.356;-1.748;2023-03-20T07:13:38;99170.19;;;8.31;100.00
69257;BME280;56376;53.356;-1.748;2023-03-20T07:16:04;99171.00;;;8.33;100.00
69257;BME280;56376;53.356;-1.748;2023-03-20T07:18:30;99170.06;;;8.36;100.00
69257;BME280;56376;53.356;-1.748;2023-03-20T07:21:01;99175.22;;;8.37;100.00
69257;BME280;56376;53.356;-1.748;2023-03-20T07:23:28;99176.91;;;8.38;100.00
69257;BME280;56376;53.356;-1.748;2023-03-20T07:25:55;99182.13;;;8.40;100.00
69257;BME280;56376;53.356;-1.748;2023-03-20T07:28:20;99181.19;;;8.41;100.00
69257;BME280;56376;53.356;-1.748;2023-03-20T07:30:45;99185.44;;;8.43;100.00
69257;BME280;56376;53.356;-1.748;2023-03-20T07:33:11;99187.16;;;8.44;100.00
69257;BME280;56376;53.356;-1.748;2023-03-20T07:35:36;99175.84;;;8.45;100.00
69257;BME280;56376;53.356;-1.748;2023-03-20T07:38:04;99180.13;;;8.47;100.00
69257;BME280;56376;53.356;-1.748;2023-03-20T07:40:29;99182.75;;;8.47;100.00
69257;BME280;56376;53.356;-1.748;2023-03-20T07:42:56;99188.72;;;8.50;100.00
69257;BME280;56376;53.356;-1.748;2023-03-20T07:45:21;99190.41;;;8.51;100.00
69257;BME280;56376;53.356;-1.748;2023-03-20T07:47:46;99194.66;;;8.54;100.00
69257;BME280;56376;53.356;-1.748;2023-03-20T07:50:13;99189.44;;;8.54;100.00
69257;BME280;56376;53.356;-1.748;2023-03-20T07:52:38;99186.81;;;8.55;100.00
69257;BME280;56376;53.356;-1.748;2023-03-20T07:55:04;99188.56;;;8.55;100.00
69257;BME280;56376;53.356;-1.748;2023-03-20T07:57:30;99184.94;;;8.59;100.00
69257;BME280;56376;53.356;-1.748;2023-03-20T07:59:55;99194.41;;;8.61;100.00
69257;BME280;56376;53.356;-1.748;2023-03-20T08:02:21;99184.84;;;8.62;100.00
69257;BME280;56376;53.356;-1.748;2023-03-20T08:04:46;99184.06;;;8.60;100.00
69257;BME280;56376;53.356;-1.748;2023-03-20T08:07:12;99185.75;;;8.61;100.00
69257;BME280;56376;53.356;-1.748;2023-03-20T08:09:37;99196.03;;;8.64;100.00
69257;BME280;56376;53.356;-1.748;2023-03-20T08:12:04;99198.59;;;8.65;100.00
69257;BME280;56376;53.356;-1.748;2023-03-20T08:14:30;99185.56;;;8.67;100.00
69257;BME280;56376;53.356;-1.748;2023-03-20T08:16:55;99191.59;;;8.68;100.00
69257;BME280;56376;53.356;-1.748;2023-03-20T08:19:21;99188.84;;;8.72;100.00
69257;BME280;56376;53.356;-1.748;2023-03-20T08:21:46;99193.19;;;8.72;100.00
69257;BME280;56376;53.356;-1.748;2023-03-20T08:24:14;99188.78;;;8.74;100.00
69257;BME280;56376;53.356;-1.748;2023-03-20T08:26:39;99190.50;;;8.75;100.00
69257;BME280;56376;53.356;-1.748;2023-03-20T08:29:05;99197.38;;;8.76;100.00
69257;BME280;56376;53.356;-1.748;2023-03-20T08:31:30;99192.19;;;8.76;100.00
69257;BME280;56376;53.356;-1.748;2023-03-20T08:33:56;99203.41;;;8.78;100.00
69257;BME280;56376;53.356;-1.748;2023-03-20T08:36:22;99198.19;;;8.78;100.00
69257;BME280;56376;53.356;-1.748;2023-03-20T08:38:48;99204.97;;;8.82;100.00
69257;BME280;56376;53.356;-1.748;2023-03-20T08:41:15;99204.94;;;8.83;100.00
69257;BME280;56376;53.356;-1.748;2023-03-20T08:43:41;99213.53;;;8.87;100.00
69257;BME280;56376;53.356;-1.748;2023-03-20T08:46:07;99217.78;;;8.90;100.00
69257;BME280;56376;53.356;-1.748;2023-03-20T08:48:32;99215.09;;;8.91;100.00
69257;BME280;56376;53.356;-1.748;2023-03-20T08:50:58;99211.59;;;8.92;100.00
69257;BME280;56376;53.356;-1.748;2023-03-20T08:53:24;99221.91;;;8.95;100.00
69257;BME280;56376;53.356;-1.748;2023-03-20T08:55:50;99210.66;;;8.95;100.00
69257;BME280;56376;53.356;-1.748;2023-03-20T08:58:17;99215.66;;;8.99;100.00
69257;BME280;56376;53.356;-1.748;2023-03-20T09:00:43;99208.66;;;9.01;100.00
69257;BME280;56376;53.356;-1.748;2023-03-20T09:03:13;99217.16;;;9.06;100.00
69257;BME280;56376;53.356;-1.748;2023-03-20T09:05:39;99207.53;;;9.08;100.00
69257;BME280;56376;53.356;-1.748;2023-03-20T09:08:05;99207.38;;;9.13;100.00
69257;BME280;56376;53.356;-1.748;2023-03-20T09:10:31;99209.91;;;9.15;100.00
69257;BME280;56376;53.356;-1.748;2023-03-20T09:12:57;99211.53;;;9.19;100.00
69257;BME280;56376;53.356;-1.748;2023-03-20T09:15:22;99206.88;;;9.27;100.00
69257;BME280;56376;53.356;-1.748;2023-03-20T09:17:47;99206.00;;;9.28;100.00
69257;BME280;56376;53.356;-1.748;2023-03-20T09:20:13;99201.78;;;9.24;100.00
69257;BME280;56376;53.356;-1.748;2023-03-20T09:22:38;99207.78;;;9.26;100.00
69257;BME280;56376;53.356;-1.748;2023-03-20T09:25:06;99210.41;;;9.26;100.00
69257;BME280;56376;53.356;-1.748;2023-03-20T09:27:31;99206.88;;;9.27;100.00
69257;BME280;56376;53.356;-1.748;2023-03-20T09:29:57;99212.91;;;9.29;100.00
69257;BME280;56376;53.356;-1.748;2023-03-20T09:32:22;99211.03;;;9.32;100.00
69257;BME280;56376;53.356;-1.748;2023-03-20T09:34:48;99214.38;;;9.36;100.00
69257;BME280;56376;53.356;-1.748;2023-03-20T09:37:13;99215.97;;;9.40;100.00
69257;BME280;56376;53.356;-1.748;2023-03-20T09:39:39;99218.63;;;9.39;100.00
69257;BME280;56376;53.356;-1.748;2023-03-20T09:42:31;99225.38;;;9.44;100.00
69257;BME280;56376;53.356;-1.748;2023-03-20T09:45:21;99228.78;;;9.46;100.00
69257;BME280;56376;53.356;-1.748;2023-03-20T09:53:33;99223.16;;;9.57;100.00
69257;BME280;56376;53.356;-1.748;2023-03-20T09:56:00;99236.09;;;9.60;100.00
69257;BME280;56376;53.356;-1.748;2023-03-20T09:58:30;99227.41;;;9.60;100.00
69257;BME280;56376;53.356;-1.748;2023-03-20T10:00:59;99241.13;;;9.65;100.00
69257;BME280;56376;53.356;-1.748;2023-03-20T10:06:16;99246.25;;;9.68;100.00
69257;BME280;56376;53.356;-1.748;2023-03-20T10:08:43;99244.41;;;9.70;100.00
69257;BME280;56376;53.356;-1.748;2023-03-20T10:14:20;99243.41;;;9.74;100.00
69257;BME280;56376;53.356;-1.748;2023-03-20T10:16:54;99264.16;;;9.77;100.00
69257;BME280;56376;53.356;-1.748;2023-03-20T10:19:30;99253.59;;;9.80;100.00
69257;BME280;56376;53.356;-1.748;2023-03-20T10:24:35;99249.13;;;9.84;100.00
69257;BME280;56376;53.356;-1.748;2023-03-20T10:27:16;99251.69;;;9.85;100.00
69257;BME280;56376;53.356;-1.748;2023-03-20T10:32:44;99259.22;;;9.93;100.00
69257;BME280;56376;53.356;-1.748;2023-03-20T10:35:36;99260.75;;;9.99;100.00
69257;BME280;56376;53.356;-1.748;2023-03-20T10:38:14;99243.16;;;10.04;100.00
69257;BME280;56376;53.356;-1.748;2023-03-20T10:40:43;99254.38;;;10.06;100.00
69257;BME280;56376;53.356;-1.748;2023-03-20T10:43:20;99248.00;;;10.13;100.00
69257;BME280;56376;53.356;-1.748;2023-03-20T10:45:52;99237.47;;;10.16;100.00
69257;BME280;56376;53.356;-1.748;2023-03-20T10:49:27;99235.53;;;10.21;100.00
69257;BME280;56376;53.356;-1.748;2023-03-20T10:51:26;99236.22;;;10.25;100.00
69257;BME280;56376;53.356;-1.748;2023-03-20T10:54:01;99240.38;;;10.30;100.00
69257;BME280;56376;53.356;-1.748;2023-03-20T10:56:35;99239.38;;;10.34;100.00
69257;BME280;56376;53.356;-1.748;2023-03-20T10:59:09;99247.88;;;10.39;100.00
69257;BME280;56376;53.356;-1.748;2023-03-20T11:01:36;99242.38;;;10.46;100.00
69257;BME280;56376;53.356;-1.748;2023-03-20T11:04:02;99229.22;;;10.49;100.00
69257;BME280;56376;53.356;-1.748;2023-03-20T11:06:31;99237.72;;;10.54;100.00
69257;BME280;56376;53.356;-1.748;2023-03-20T11:09:10;99238.44;;;10.57;100.00
69257;BME280;56376;53.356;-1.748;2023-03-20T11:11:37;99237.41;;;10.61;100.00
69257;BME280;56376;53.356;-1.748;2023-03-20T11:14:16;99240.81;;;10.64;100.00
69257;BME280;56376;53.356;-1.748;2023-03-20T11:16:46;99235.50;;;10.65;100.00
69257;BME280;56376;53.356;-1.748;2023-03-20T11:19:13;99236.28;;;10.67;100.00
69257;BME280;56376;53.356;-1.748;2023-03-20T11:21:52;99232.84;;;10.67;100.00
69257;BME280;56376;53.356;-1.748;2023-03-20T11:24:25;99236.25;;;10.69;100.00
69257;BME280;56376;53.356;-1.748;2023-03-20T11:26:51;99231.03;;;10.69;100.00
69257;BME280;56376;53.356;-1.748;2023-03-20T11:29:28;99229.06;;;10.74;100.00
69257;BME280;56376;53.356;-1.748;2023-03-20T11:32:45;99225.47;;;10.76;100.00
69257;BME280;56376;53.356;-1.748;2023-03-20T11:34:50;99232.38;;;10.77;100.00
69257;BME280;56376;53.356;-1.748;2023-03-20T11:37:28;99230.63;;;10.78;100.00
69257;BME280;56376;53.356;-1.748;2023-03-20T11:40:14;99228.09;;;10.76;100.00
69257;BME280;56376;53.356;-1.748;2023-03-20T11:42:51;99233.31;;;10.76;100.00
69257;BME280;56376;53.356;-1.748;2023-03-20T11:45:17;99234.03;;;10.80;100.00
69257;BME280;56376;53.356;-1.748;2023-03-20T11:47:48;99220.13;;;10.79;100.00
69257;BME280;56376;53.356;-1.748;2023-03-20T11:50:32;99221.69;;;10.83;100.00
69257;BME280;56376;53.356;-1.748;2023-03-20T11:53:14;99226.69;;;10.88;100.00
69257;BME280;56376;53.356;-1.748;2023-03-20T11:55:42;99210.13;;;10.89;100.00
69257;BME280;56376;53.356;-1.748;2023-03-20T11:58:14;99215.16;;;10.94;100.00
69257;BME280;56376;53.356;-1.748;2023-03-20T12:00:41;99208.03;;;10.97;100.00
69257;BME280;56376;53.356;-1.748;2023-03-20T12:06:12;99217.13;;;11.09;100.00
69257;BME280;56376;53.356;-1.748;2023-03-20T12:08:39;99221.38;;;11.12;100.00
69257;BME280;56376;53.356;-1.748;2023-03-20T12:11:23;99223.00;;;11.14;100.00
69257;BME280;56376;53.356;-1.748;2023-03-20T12:13:52;99211.59;;;11.15;100.00
69257;BME280;56376;53.356;-1.748;2023-03-20T12:16:21;99220.28;;;11.16;100.00
69257;BME280;56376;53.356;-1.748;2023-03-20T12:18:59;99210.72;;;11.16;100.00
69257;BME280;56376;53.356;-1.748;2023-03-20T12:26:50;99204.22;;;11.25;100.00
69257;BME280;56376;53.356;-1.748;2023-03-20T12:29:27;99198.06;;;11.26;100.00
69257;BME280;56376;53.356;-1.748;2023-03-20T12:32:01;99194.47;;;11.29;100.00
69257;BME280;56376;53.356;-1.748;2023-03-20T12:34:34;99202.28;;;11.29;100.00
69257;BME280;56376;53.356;-1.748;2023-03-20T12:37:02;99197.81;;;11.32;100.00
69257;BME280;56376;53.356;-1.748;2023-03-20T12:39:32;99195.19;;;11.32;100.00
69257;BME280;56376;53.356;-1.748;2023-03-20T12:42:13;99188.97;;;11.35;100.00
69257;BME280;56376;53.356;-1.748;2023-03-20T12:45:19;99186.41;;;11.33;100.00
69257;BME280;56376;53.356;-1.748;2023-03-20T12:50:38;99185.38;;;11.37;100.00
69257;BME280;56376;53.356;-1.748;2023-03-20T12:56:26;99188.63;;;11.42;100.00
69257;BME280;56376;53.356;-1.748;2023-03-20T13:04:01;99171.19;;;11.62;100.00
69257;BME280;56376;53.356;-1.748;2023-03-20T13:06:53;99178.66;;;11.69;100.00
69257;BME280;56376;53.356;-1.748;2023-03-20T13:17:40;99179.25;;;11.95;100.00
69257;BME280;56376;53.356;-1.748;2023-03-20T13:20:30;99175.53;;;11.99;100.00
69257;BME280;56376;53.356;-1.748;2023-03-20T13:23:25;99180.56;;;12.04;100.00
69257;BME280;56376;53.356;-1.748;2023-03-20T13:34:27;99167.09;;;12.11;100.00
69257;BME280;56376;53.356;-1.748;2023-03-20T13:37:19;99166.59;;;12.22;100.00
69257;BME280;56376;53.356;-1.748;2023-03-20T13:42:22;99172.84;;;12.37;100.00
69257;BME280;56376;53.356;-1.748;2023-03-20T13:45:00;99171.94;;;12.38;100.00
69257;BME280;56376;53.356;-1.748;2023-03-20T13:47:30;99181.47;;;12.39;100.00
69257;BME280;56376;53.356;-1.748;2023-03-20T13:50:43;99174.47;;;12.40;100.00
69257;BME280;56376;53.356;-1.748;2023-03-20T13:53:22;99165.59;;;12.42;100.00
69257;BME280;56376;53.356;-1.748;2023-03-20T13:56:02;99168.09;;;12.45;100.00
69257;BME280;56376;53.356;-1.748;2023-03-20T13:58:54;99161.00;;;12.47;100.00
69257;BME280;56376;53.356;-1.748;2023-03-20T14:04:15;99162.47;;;12.53;100.00
69257;BME280;56376;53.356;-1.748;2023-03-20T14:06:53;99155.28;;;12.56;100.00
69257;BME280;56376;53.356;-1.748;2023-03-20T14:11:53;99150.50;;;12.65;100.00
69257;BME280;56376;53.356;-1.748;2023-03-20T14:14:31;99142.50;;;12.68;100.00
69257;BME280;56376;53.356;-1.748;2023-03-20T14:17:29;99140.63;;;12.70;100.00
69257;BME280;56376;53.356;-1.748;2023-03-20T14:19:56;99149.38;;;12.70;100.00
69257;BME280;56376;53.356;-1.748;2023-03-20T14:22:35;99145.63;;;12.74;100.00
69257;BME280;56376;53.356;-1.748;2023-03-20T14:25:05;99146.47;;;12.75;100.00
69257;BME280;56376;53.356;-1.748;2023-03-20T14:27:52;99145.63;;;12.74;100.00
69257;BME280;56376;53.356;-1.748;2023-03-20T14:33:05;99147.25;;;12.77;100.00
69257;BME280;56376;53.356;-1.748;2023-03-20T14:35:37;99146.34;;;12.78;100.00
69257;BME280;56376;53.356;-1.748;2023-03-20T14:41:02;99141.88;;;12.80;100.00
69257;BME280;56376;53.356;-1.748;2023-03-20T14:46:20;99134.63;;;12.85;100.00
69257;BME280;56376;53.356;-1.748;2023-03-20T14:48:52;99142.31;;;12.88;100.00
69257;BME280;56376;53.356;-1.748;2023-03-20T14:51:32;99141.22;;;12.92;100.00